sensor_id;sensor_type;location;lat;lon;timestamp;P1;durP1;ratioP1;P2;durP2;ratioP2
948;SDS011;461;51.436;7.312;2023-08-01T00:02:10;1.50;;;1.40;;
948;SDS011;461;51.436;7.312;2023-08-01T00:04:36;1.60;;;1.47;;
948;SDS011;461;51.436;7.312;2023-08-01T00:07:02;1.50;;;1.27;;
948;SDS011;461;51.436;7.312;2023-08-01T00:09:28;1.67;;;1.17;;
948;SDS011;461;51.436;7.312;2023-08-01T00:11:54;1.43;;;1.33;;
948;SDS011;461;51.436;7.312;2023-08-01T00:14:20;1.33;;;1.17;;
948;SDS011;461;51.436;7.312;2023-08-01T00:16:49;1.10;;;1.00;;
948;SDS011;461;51.436;7.312;2023-08-01T00:19:15;1.63;;;1.10;;
948;SDS011;461;51.436;7.312;2023-08-01T00:21:41;1.77;;;1.10;;
948;SDS011;461;51.436;7.312;2023-08-01T00:24:07;2.33;;;1.50;;
948;SDS011;461;51.436;7.312;2023-08-01T00:26:34;1.20;;;1.10;;
948;SDS011;461;51.436;7.312;2023-08-01T00:29:00;1.30;;;1.10;;
948;SDS011;461;51.436;7.312;2023-08-01T00:31:26;1.93;;;1.37;;
948;SDS011;461;51.436;7.312;2023-08-01T00:33:52;1.70;;;1.23;;
948;SDS011;461;51.436;7.312;2023-08-01T00:36:18;1.77;;;1.37;;
948;SDS011;461;51.436;7.312;2023-08-01T00:38:44;1.97;;;1.20;;
948;SDS011;461;51.436;7.312;2023-08-01T00:41:11;2.27;;;1.47;;
948;SDS011;461;51.436;7.312;2023-08-01T00:43:37;1.57;;;1.10;;
948;SDS011;461;51.436;7.312;2023-08-01T00:46:03;2.90;;;1.80;;
948;SDS011;461;51.436;7.312;2023-08-01T00:48:30;1.80;;;1.60;;
948;SDS011;461;51.436;7.312;2023-08-01T00:51:01;3.07;;;1.57;;
948;SDS011;461;51.436;7.312;2023-08-01T00:53:29;1.37;;;1.20;;
948;SDS011;461;51.436;7.312;2023-08-01T00:55:56;1.00;;;0.90;;
948;SDS011;461;51.436;7.312;2023-08-01T00:58:22;2.30;;;1.00;;
948;SDS011;461;51.436;7.312;2023-08-01T01:00:48;1.10;;;0.90;;
948;SDS011;461;51.436;7.312;2023-08-01T01:03:14;1.50;;;1.20;;
948;SDS011;461;51.436;7.312;2023-08-01T01:05:43;1.07;;;0.97;;
948;SDS011;461;51.436;7.312;2023-08-01T01:08:09;2.67;;;0.90;;
948;SDS011;461;51.436;7.312;2023-08-01T01:10:35;3.60;;;1.03;;
948;SDS011;461;51.436;7.312;2023-08-01T01:13:01;1.30;;;1.00;;
948;SDS011;461;51.436;7.312;2023-08-01T01:15:27;1.20;;;1.10;;
948;SDS011;461;51.436;7.312;2023-08-01T01:17:53;1.10;;;1.00;;
948;SDS011;461;51.436;7.312;2023-08-01T01:20:21;1.63;;;1.13;;
948;SDS011;461;51.436;7.312;2023-08-01T01:22:47;1.40;;;1.10;;
948;SDS011;461;51.436;7.312;2023-08-01T01:25:14;1.20;;;1.10;;
948;SDS011;461;51.436;7.312;2023-08-01T01:27:41;2.90;;;1.70;;
948;SDS011;461;51.436;7.312;2023-08-01T01:30:10;2.20;;;2.00;;
948;SDS011;461;51.436;7.312;2023-08-01T01:32:36;10.50;;;2.10;;
948;SDS011;461;51.436;7.312;2023-08-01T01:35:03;4.20;;;1.90;;
948;SDS011;461;51.436;7.312;2023-08-01T01:37:30;2.77;;;1.90;;
948;SDS011;461;51.436;7.312;2023-08-01T01:39:56;2.13;;;1.93;;
948;SDS011;461;51.436;7.312;2023-08-01T01:42:22;3.37;;;2.30;;
948;SDS011;461;51.436;7.312;2023-08-01T01:44:48;4.07;;;2.27;;
948;SDS011;461;51.436;7.312;2023-08-01T01:47:14;5.17;;;2.10;;
948;SDS011;461;51.436;7.312;2023-08-01T01:49:40;5.10;;;2.60;;
948;SDS011;461;51.436;7.312;2023-08-01T01:52:06;3.60;;;2.23;;
948;SDS011;461;51.436;7.312;2023-08-01T01:54:32;4.97;;;2.67;;
948;SDS011;461;51.436;7.312;2023-08-01T01:56:58;2.97;;;2.70;;
948;SDS011;461;51.436;7.312;2023-08-01T01:59:24;3.90;;;3.33;;
948;SDS011;461;51.436;7.312;2023-08-01T02:01:50;4.10;;;3.57;;
948;SDS011;461;51.436;7.312;2023-08-01T02:04:16;4.60;;;3.50;;
948;SDS011;461;51.436;7.312;2023-08-01T02:06:43;5.90;;;2.77;;
948;SDS011;461;51.436;7.312;2023-08-01T02:09:09;3.93;;;3.50;;
948;SDS011;461;51.436;7.312;2023-08-01T02:11:35;5.37;;;2.77;;
948;SDS011;461;51.436;7.312;2023-08-01T02:14:01;5.70;;;3.83;;
948;SDS011;461;51.436;7.312;2023-08-01T02:16:28;4.30;;;3.50;;
948;SDS011;461;51.436;7.312;2023-08-01T02:18:54;6.50;;;4.33;;
948;SDS011;461;51.436;7.312;2023-08-01T02:21:20;6.07;;;4.93;;
948;SDS011;461;51.436;7.312;2023-08-01T02:23:46;6.07;;;4.57;;
948;SDS011;461;51.436;7.312;2023-08-01T02:26:12;5.60;;;4.30;;
948;SDS011;461;51.436;7.312;2023-08-01T02:28:38;4.20;;;3.80;;
948;SDS011;461;51.436;7.312;2023-08-01T02:31:04;5.00;;;3.57;;
948;SDS011;461;51.436;7.312;2023-08-01T02:33:31;4.13;;;3.73;;
948;SDS011;461;51.436;7.312;2023-08-01T02:35:57;4.20;;;3.33;;
948;SDS011;461;51.436;7.312;2023-08-01T02:38:23;4.03;;;3.10;;
948;SDS011;461;51.436;7.312;2023-08-01T02:40:49;4.77;;;2.90;;
948;SDS011;461;51.436;7.312;2023-08-01T02:43:15;3.43;;;3.00;;
948;SDS011;461;51.436;7.312;2023-08-01T02:45:42;4.27;;;3.00;;
948;SDS011;461;51.436;7.312;2023-08-01T02:48:08;6.77;;;3.03;;
948;SDS011;461;51.436;7.312;2023-08-01T02:50:34;6.20;;;3.10;;
948;SDS011;461;51.436;7.312;2023-08-01T02:53:00;3.13;;;2.43;;
948;SDS011;461;51.436;7.312;2023-08-01T02:55:26;3.90;;;2.60;;
948;SDS011;461;51.436;7.312;2023-08-01T02:57:52;4.30;;;3.30;;
948;SDS011;461;51.436;7.312;2023-08-01T03:00:18;3.30;;;2.90;;
948;SDS011;461;51.436;7.312;2023-08-01T03:02:44;5.53;;;2.93;;
948;SDS011;461;51.436;7.312;2023-08-01T03:05:10;4.73;;;3.10;;
948;SDS011;461;51.436;7.312;2023-08-01T03:07:36;4.67;;;3.27;;
948;SDS011;461;51.436;7.312;2023-08-01T03:10:03;3.83;;;3.13;;
948;SDS011;461;51.436;7.312;2023-08-01T03:12:29;8.47;;;3.60;;
948;SDS011;461;51.436;7.312;2023-08-01T03:14:56;5.03;;;3.17;;
948;SDS011;461;51.436;7.312;2023-08-01T03:17:22;5.93;;;4.00;;
948;SDS011;461;51.436;7.312;2023-08-01T03:32:02;7.40;;;5.90;;
948;SDS011;461;51.436;7.312;2023-08-01T03:34:28;6.57;;;5.13;;
948;SDS011;461;51.436;7.312;2023-08-01T03:36:54;10.83;;;5.50;;
948;SDS011;461;51.436;7.312;2023-08-01T04:14:20;15.07;;;11.83;;
948;SDS011;461;51.436;7.312;2023-08-01T04:16:52;15.33;;;11.80;;
948;SDS011;461;51.436;7.312;2023-08-01T04:19:23;18.37;;;11.50;;
948;SDS011;461;51.436;7.312;2023-08-01T04:21:55;17.47;;;11.83;;
948;SDS011;461;51.436;7.312;2023-08-01T04:24:27;14.83;;;9.97;;
948;SDS011;461;51.436;7.312;2023-08-01T04:26:56;21.70;;;12.20;;
948;SDS011;461;51.436;7.312;2023-08-01T04:29:22;14.00;;;9.83;;
948;SDS011;461;51.436;7.312;2023-08-01T04:31:48;10.93;;;9.43;;
948;SDS011;461;51.436;7.312;2023-08-01T04:34:15;12.80;;;8.27;;
948;SDS011;461;51.436;7.312;2023-08-01T04:36:41;12.10;;;9.60;;
948;SDS011;461;51.436;7.312;2023-08-01T04:39:07;13.70;;;9.60;;
948;SDS011;461;51.436;7.312;2023-08-01T04:41:33;17.93;;;10.03;;
948;SDS011;461;51.436;7.312;2023-08-01T04:44:00;14.83;;;8.90;;
948;SDS011;461;51.436;7.312;2023-08-01T04:46:26;12.80;;;8.10;;
948;SDS011;461;51.436;7.312;2023-08-01T04:48:53;12.03;;;9.33;;
948;SDS011;461;51.436;7.312;2023-08-01T04:51:19;11.50;;;9.07;;
948;SDS011;461;51.436;7.312;2023-08-01T04:53:46;12.03;;;8.10;;
948;SDS011;461;51.436;7.312;2023-08-01T04:56:12;14.77;;;8.53;;
948;SDS011;461;51.436;7.312;2023-08-01T04:58:38;12.27;;;8.60;;
948;SDS011;461;51.436;7.312;2023-08-01T05:01:05;10.17;;;7.37;;
948;SDS011;461;51.436;7.312;2023-08-01T05:03:31;13.37;;;8.70;;
948;SDS011;461;51.436;7.312;2023-08-01T05:05:57;13.77;;;9.60;;
948;SDS011;461;51.436;7.312;2023-08-01T05:08:24;16.90;;;9.77;;
948;SDS011;461;51.436;7.312;2023-08-01T05:10:50;16.33;;;8.87;;
948;SDS011;461;51.436;7.312;2023-08-01T05:13:16;12.50;;;9.30;;
948;SDS011;461;51.436;7.312;2023-08-01T05:15:46;14.03;;;10.13;;
948;SDS011;461;51.436;7.312;2023-08-01T05:18:13;18.87;;;9.70;;
948;SDS011;461;51.436;7.312;2023-08-01T05:20:39;16.43;;;10.63;;
948;SDS011;461;51.436;7.312;2023-08-01T05:23:05;14.93;;;10.17;;
948;SDS011;461;51.436;7.312;2023-08-01T05:25:32;16.37;;;11.30;;
948;SDS011;461;51.436;7.312;2023-08-01T05:27:58;23.10;;;12.40;;
948;SDS011;461;51.436;7.312;2023-08-01T05:39:54;25.87;;;13.53;;
948;SDS011;461;51.436;7.312;2023-08-01T05:42:24;17.47;;;12.43;;
948;SDS011;461;51.436;7.312;2023-08-01T05:44:50;17.43;;;13.40;;
948;SDS011;461;51.436;7.312;2023-08-01T05:47:17;23.43;;;14.43;;
948;SDS011;461;51.436;7.312;2023-08-01T05:49:44;26.13;;;14.40;;
948;SDS011;461;51.436;7.312;2023-08-01T05:52:10;19.40;;;14.23;;
948;SDS011;461;51.436;7.312;2023-08-01T05:54:37;20.50;;;14.30;;
948;SDS011;461;51.436;7.312;2023-08-01T05:57:03;21.50;;;15.50;;
948;SDS011;461;51.436;7.312;2023-08-01T05:59:29;23.13;;;14.13;;
948;SDS011;461;51.436;7.312;2023-08-01T06:01:55;25.63;;;14.60;;
948;SDS011;461;51.436;7.312;2023-08-01T06:04:21;20.13;;;12.53;;
948;SDS011;461;51.436;7.312;2023-08-01T06:06:48;22.20;;;13.80;;
948;SDS011;461;51.436;7.312;2023-08-01T06:09:14;21.90;;;14.53;;
948;SDS011;461;51.436;7.312;2023-08-01T06:11:40;24.00;;;14.40;;
948;SDS011;461;51.436;7.312;2023-08-01T06:14:06;19.37;;;14.33;;
948;SDS011;461;51.436;7.312;2023-08-01T06:16:32;21.80;;;15.27;;
948;SDS011;461;51.436;7.312;2023-08-01T06:18:59;24.43;;;15.77;;
948;SDS011;461;51.436;7.312;2023-08-01T06:21:25;21.60;;;15.60;;
948;SDS011;461;51.436;7.312;2023-08-01T06:23:52;26.33;;;15.23;;
948;SDS011;461;51.436;7.312;2023-08-01T06:26:18;25.07;;;16.00;;
948;SDS011;461;51.436;7.312;2023-08-01T06:28:45;24.67;;;14.90;;
948;SDS011;461;51.436;7.312;2023-08-01T06:31:11;21.60;;;13.33;;
948;SDS011;461;51.436;7.312;2023-08-01T06:33:37;20.57;;;15.00;;
948;SDS011;461;51.436;7.312;2023-08-01T06:36:04;22.10;;;13.53;;
948;SDS011;461;51.436;7.312;2023-08-01T06:38:31;23.67;;;12.53;;
948;SDS011;461;51.436;7.312;2023-08-01T06:40:57;21.17;;;13.10;;
948;SDS011;461;51.436;7.312;2023-08-01T06:58:39;14.37;;;10.77;;
948;SDS011;461;51.436;7.312;2023-08-01T07:01:06;19.13;;;11.00;;
948;SDS011;461;51.436;7.312;2023-08-01T07:03:32;20.53;;;11.73;;
948;SDS011;461;51.436;7.312;2023-08-01T07:05:58;16.30;;;10.10;;
948;SDS011;461;51.436;7.312;2023-08-01T07:08:25;15.50;;;11.80;;
948;SDS011;461;51.436;7.312;2023-08-01T07:10:51;15.33;;;10.97;;
948;SDS011;461;51.436;7.312;2023-08-01T07:13:17;18.43;;;11.70;;
948;SDS011;461;51.436;7.312;2023-08-01T07:15:44;14.37;;;11.17;;
948;SDS011;461;51.436;7.312;2023-08-01T07:18:11;14.90;;;10.70;;
948;SDS011;461;51.436;7.312;2023-08-01T07:20:37;15.80;;;10.57;;
948;SDS011;461;51.436;7.312;2023-08-01T07:23:03;17.00;;;10.03;;
948;SDS011;461;51.436;7.312;2023-08-01T07:25:29;13.40;;;9.93;;
948;SDS011;461;51.436;7.312;2023-08-01T07:27:55;17.83;;;10.70;;
948;SDS011;461;51.436;7.312;2023-08-01T07:30:22;17.97;;;9.80;;
948;SDS011;461;51.436;7.312;2023-08-01T07:32:48;14.60;;;9.87;;
948;SDS011;461;51.436;7.312;2023-08-01T07:35:15;17.00;;;9.60;;
948;SDS011;461;51.436;7.312;2023-08-01T07:37:41;16.73;;;9.53;;
948;SDS011;461;51.436;7.312;2023-08-01T07:40:07;11.13;;;8.70;;
948;SDS011;461;51.436;7.312;2023-08-01T07:42:34;13.30;;;8.80;;
948;SDS011;461;51.436;7.312;2023-08-01T07:45:00;19.43;;;9.40;;
948;SDS011;461;51.436;7.312;2023-08-01T07:47:26;10.10;;;8.50;;
948;SDS011;461;51.436;7.312;2023-08-01T07:49:52;15.83;;;9.60;;
948;SDS011;461;51.436;7.312;2023-08-01T07:52:18;14.73;;;9.30;;
948;SDS011;461;51.436;7.312;2023-08-01T07:54:44;16.33;;;9.40;;
948;SDS011;461;51.436;7.312;2023-08-01T07:57:11;13.20;;;7.67;;
948;SDS011;461;51.436;7.312;2023-08-01T07:59:37;19.90;;;8.80;;
948;SDS011;461;51.436;7.312;2023-08-01T08:02:03;12.93;;;7.70;;
948;SDS011;461;51.436;7.312;2023-08-01T08:04:29;16.67;;;8.50;;
948;SDS011;461;51.436;7.312;2023-08-01T08:06:56;9.13;;;6.70;;
948;SDS011;461;51.436;7.312;2023-08-01T08:09:25;9.40;;;6.83;;
948;SDS011;461;51.436;7.312;2023-08-01T08:11:51;16.23;;;8.90;;
948;SDS011;461;51.436;7.312;2023-08-01T08:14:18;8.93;;;6.43;;
948;SDS011;461;51.436;7.312;2023-08-01T08:16:46;11.90;;;6.90;;
948;SDS011;461;51.436;7.312;2023-08-01T08:19:12;8.83;;;6.37;;
948;SDS011;461;51.436;7.312;2023-08-01T08:21:38;15.67;;;7.37;;
948;SDS011;461;51.436;7.312;2023-08-01T08:24:05;9.03;;;6.73;;
948;SDS011;461;51.436;7.312;2023-08-01T08:26:31;9.07;;;6.13;;
948;SDS011;461;51.436;7.312;2023-08-01T08:28:59;10.73;;;6.37;;
948;SDS011;461;51.436;7.312;2023-08-01T08:31:25;8.23;;;5.80;;
948;SDS011;461;51.436;7.312;2023-08-01T08:33:51;8.30;;;5.00;;
948;SDS011;461;51.436;7.312;2023-08-01T08:36:17;15.23;;;5.67;;
948;SDS011;461;51.436;7.312;2023-08-01T08:38:43;5.47;;;4.83;;
948;SDS011;461;51.436;7.312;2023-08-01T08:41:10;8.90;;;5.90;;
948;SDS011;461;51.436;7.312;2023-08-01T08:43:37;6.93;;;5.13;;
948;SDS011;461;51.436;7.312;2023-08-01T08:46:03;8.23;;;5.87;;
948;SDS011;461;51.436;7.312;2023-08-01T08:48:30;9.87;;;5.30;;
948;SDS011;461;51.436;7.312;2023-08-01T08:50:57;8.10;;;5.20;;
948;SDS011;461;51.436;7.312;2023-08-01T08:53:24;8.20;;;5.60;;
948;SDS011;461;51.436;7.312;2023-08-01T08:55:50;10.50;;;6.20;;
948;SDS011;461;51.436;7.312;2023-08-01T08:58:16;8.50;;;7.00;;
948;SDS011;461;51.436;7.312;2023-08-01T09:00:43;6.00;;;5.30;;
948;SDS011;461;51.436;7.312;2023-08-01T09:03:09;9.70;;;5.80;;
948;SDS011;461;51.436;7.312;2023-08-01T09:05:48;9.57;;;6.00;;
948;SDS011;461;51.436;7.312;2023-08-01T09:35:55;10.00;;;4.90;;
948;SDS011;461;51.436;7.312;2023-08-01T09:38:22;5.40;;;4.30;;
948;SDS011;461;51.436;7.312;2023-08-01T09:40:57;6.33;;;3.97;;
948;SDS011;461;51.436;7.312;2023-08-01T09:43:34;7.70;;;5.00;;
948;SDS011;461;51.436;7.312;2023-08-01T09:46:08;5.20;;;4.37;;
948;SDS011;461;51.436;7.312;2023-08-01T09:48:49;8.10;;;4.40;;
948;SDS011;461;51.436;7.312;2023-08-01T09:51:17;4.17;;;3.70;;
948;SDS011;461;51.436;7.312;2023-08-01T09:53:50;5.40;;;3.87;;
948;SDS011;461;51.436;7.312;2023-08-01T09:56:21;6.00;;;4.47;;
948;SDS011;461;51.436;7.312;2023-08-01T10:27:21;8.10;;;3.50;;
948;SDS011;461;51.436;7.312;2023-08-01T10:29:57;4.53;;;3.70;;
948;SDS011;461;51.436;7.312;2023-08-01T10:32:29;5.37;;;4.27;;
948;SDS011;461;51.436;7.312;2023-08-01T10:34:57;10.00;;;4.03;;
948;SDS011;461;51.436;7.312;2023-08-01T10:52:20;7.80;;;4.80;;
948;SDS011;461;51.436;7.312;2023-08-01T10:55:01;6.03;;;5.03;;
948;SDS011;461;51.436;7.312;2023-08-01T10:57:38;5.53;;;4.57;;
948;SDS011;461;51.436;7.312;2023-08-01T11:12:34;7.67;;;4.57;;
948;SDS011;461;51.436;7.312;2023-08-01T11:15:00;5.37;;;3.80;;
948;SDS011;461;51.436;7.312;2023-08-01T11:17:27;8.50;;;4.37;;
948;SDS011;461;51.436;7.312;2023-08-01T11:20:00;5.63;;;3.93;;
948;SDS011;461;51.436;7.312;2023-08-01T11:22:27;3.43;;;3.03;;
948;SDS011;461;51.436;7.312;2023-08-01T11:24:53;4.73;;;3.63;;
948;SDS011;461;51.436;7.312;2023-08-01T11:27:19;4.50;;;3.40;;
948;SDS011;461;51.436;7.312;2023-08-01T11:29:46;5.53;;;3.30;;
948;SDS011;461;51.436;7.312;2023-08-01T11:32:12;5.27;;;3.20;;
948;SDS011;461;51.436;7.312;2023-08-01T11:34:39;4.40;;;3.90;;
948;SDS011;461;51.436;7.312;2023-08-01T11:55:45;6.47;;;4.47;;
948;SDS011;461;51.436;7.312;2023-08-01T11:58:14;6.50;;;3.80;;
948;SDS011;461;51.436;7.312;2023-08-01T12:00:42;5.00;;;4.03;;
948;SDS011;461;51.436;7.312;2023-08-01T12:23:37;6.27;;;4.30;;
948;SDS011;461;51.436;7.312;2023-08-01T12:26:04;4.43;;;3.80;;
948;SDS011;461;51.436;7.312;2023-08-01T13:26:42;6.47;;;3.80;;
948;SDS011;461;51.436;7.312;2023-08-01T14:58:53;4.00;;;2.73;;
948;SDS011;461;51.436;7.312;2023-08-01T15:01:21;4.03;;;2.20;;
948;SDS011;461;51.436;7.312;2023-08-01T15:03:47;4.40;;;2.93;;
948;SDS011;461;51.436;7.312;2023-08-01T15:53:26;12.77;;;4.33;;
948;SDS011;461;51.436;7.312;2023-08-01T15:59:15;3.03;;;2.23;;
948;SDS011;461;51.436;7.312;2023-08-01T16:01:44;2.70;;;2.20;;
948;SDS011;461;51.436;7.312;2023-08-01T16:06:57;5.93;;;2.47;;
948;SDS011;461;51.436;7.312;2023-08-01T16:09:25;4.43;;;2.13;;
948;SDS011;461;51.436;7.312;2023-08-01T16:11:55;4.00;;;2.27;;
948;SDS011;461;51.436;7.312;2023-08-01T16:14:34;3.80;;;1.97;;
948;SDS011;461;51.436;7.312;2023-08-01T16:17:04;4.53;;;2.00;;
948;SDS011;461;51.436;7.312;2023-08-01T16:19:54;7.37;;;2.57;;
948;SDS011;461;51.436;7.312;2023-08-01T16:22:20;4.67;;;2.63;;
948;SDS011;461;51.436;7.312;2023-08-01T16:24:47;5.90;;;2.20;;
948;SDS011;461;51.436;7.312;2023-08-01T16:27:13;4.60;;;2.27;;
948;SDS011;461;51.436;7.312;2023-08-01T16:29:39;2.67;;;1.83;;
948;SDS011;461;51.436;7.312;2023-08-01T16:32:05;3.00;;;1.87;;
948;SDS011;461;51.436;7.312;2023-08-01T16:34:32;7.43;;;2.20;;
948;SDS011;461;51.436;7.312;2023-08-01T16:36:58;3.57;;;1.67;;
948;SDS011;461;51.436;7.312;2023-08-01T16:39:26;4.87;;;2.83;;
948;SDS011;461;51.436;7.312;2023-08-01T16:41:52;3.33;;;2.20;;
948;SDS011;461;51.436;7.312;2023-08-01T16:44:19;5.60;;;2.17;;
948;SDS011;461;51.436;7.312;2023-08-01T16:46:45;4.90;;;2.03;;
948;SDS011;461;51.436;7.312;2023-08-01T16:49:11;3.37;;;1.93;;
948;SDS011;461;51.436;7.312;2023-08-01T16:51:37;9.10;;;2.00;;
948;SDS011;461;51.436;7.312;2023-08-01T16:54:04;6.63;;;1.70;;
948;SDS011;461;51.436;7.312;2023-08-01T16:56:30;6.40;;;1.87;;
948;SDS011;461;51.436;7.312;2023-08-01T16:58:56;3.83;;;1.80;;
948;SDS011;461;51.436;7.312;2023-08-01T17:01:22;3.60;;;1.73;;
948;SDS011;461;51.436;7.312;2023-08-01T17:03:48;6.23;;;1.93;;
948;SDS011;461;51.436;7.312;2023-08-01T17:06:15;5.40;;;2.00;;
948;SDS011;461;51.436;7.312;2023-08-01T17:08:42;3.83;;;2.30;;
948;SDS011;461;51.436;7.312;2023-08-01T17:11:08;5.57;;;2.23;;
948;SDS011;461;51.436;7.312;2023-08-01T17:13:34;7.73;;;3.63;;
948;SDS011;461;51.436;7.312;2023-08-01T17:16:01;2.90;;;1.60;;
948;SDS011;461;51.436;7.312;2023-08-01T17:18:27;7.50;;;1.97;;
948;SDS011;461;51.436;7.312;2023-08-01T17:20:55;4.93;;;1.90;;
948;SDS011;461;51.436;7.312;2023-08-01T17:23:27;3.90;;;2.30;;
948;SDS011;461;51.436;7.312;2023-08-01T17:25:54;4.70;;;2.17;;
948;SDS011;461;51.436;7.312;2023-08-01T17:28:22;2.50;;;1.60;;
948;SDS011;461;51.436;7.312;2023-08-01T17:30:48;4.20;;;2.50;;
948;SDS011;461;51.436;7.312;2023-08-01T17:33:16;4.50;;;2.47;;
948;SDS011;461;51.436;7.312;2023-08-01T17:35:44;3.53;;;1.90;;
948;SDS011;461;51.436;7.312;2023-08-01T17:38:11;3.33;;;1.90;;
948;SDS011;461;51.436;7.312;2023-08-01T17:40:39;3.97;;;2.47;;
948;SDS011;461;51.436;7.312;2023-08-01T17:43:05;2.53;;;1.70;;
948;SDS011;461;51.436;7.312;2023-08-01T17:45:31;3.37;;;1.87;;
948;SDS011;461;51.436;7.312;2023-08-01T17:48:06;4.10;;;2.37;;
948;SDS011;461;51.436;7.312;2023-08-01T17:50:44;2.87;;;1.53;;
948;SDS011;461;51.436;7.312;2023-08-01T17:59:22;3.37;;;1.83;;
948;SDS011;461;51.436;7.312;2023-08-01T18:01:48;2.63;;;1.60;;
948;SDS011;461;51.436;7.312;2023-08-01T18:04:14;2.80;;;1.57;;
948;SDS011;461;51.436;7.312;2023-08-01T18:06:45;4.20;;;2.07;;
948;SDS011;461;51.436;7.312;2023-08-01T18:09:12;6.90;;;1.70;;
948;SDS011;461;51.436;7.312;2023-08-01T18:11:38;3.43;;;1.77;;
948;SDS011;461;51.436;7.312;2023-08-01T18:14:04;3.10;;;1.90;;
948;SDS011;461;51.436;7.312;2023-08-01T18:16:30;3.17;;;1.70;;
948;SDS011;461;51.436;7.312;2023-08-01T18:18:57;4.37;;;1.90;;
948;SDS011;461;51.436;7.312;2023-08-01T18:21:23;3.43;;;1.60;;
948;SDS011;461;51.436;7.312;2023-08-01T18:23:49;3.50;;;1.90;;
948;SDS011;461;51.436;7.312;2023-08-01T18:26:22;3.40;;;1.70;;
948;SDS011;461;51.436;7.312;2023-08-01T18:28:49;2.00;;;1.50;;
948;SDS011;461;51.436;7.312;2023-08-01T18:31:15;2.20;;;1.50;;
948;SDS011;461;51.436;7.312;2023-08-01T18:33:42;4.90;;;1.90;;
948;SDS011;461;51.436;7.312;2023-08-01T18:57:36;2.87;;;1.73;;
948;SDS011;461;51.436;7.312;2023-08-01T19:00:02;3.77;;;2.03;;
948;SDS011;461;51.436;7.312;2023-08-01T19:02:29;7.83;;;2.30;;
948;SDS011;461;51.436;7.312;2023-08-01T19:04:55;4.50;;;2.13;;
948;SDS011;461;51.436;7.312;2023-08-01T19:07:21;4.90;;;1.73;;
948;SDS011;461;51.436;7.312;2023-08-01T19:09:48;7.63;;;2.33;;
948;SDS011;461;51.436;7.312;2023-08-01T19:12:14;2.17;;;1.90;;
948;SDS011;461;51.436;7.312;2023-08-01T19:14:40;9.27;;;2.00;;
948;SDS011;461;51.436;7.312;2023-08-01T19:17:06;3.73;;;1.90;;
948;SDS011;461;51.436;7.312;2023-08-01T19:19:32;3.77;;;1.63;;
948;SDS011;461;51.436;7.312;2023-08-01T19:21:58;3.43;;;2.07;;
948;SDS011;461;51.436;7.312;2023-08-01T19:24:24;3.87;;;2.43;;
948;SDS011;461;51.436;7.312;2023-08-01T19:26:50;5.40;;;2.40;;
948;SDS011;461;51.436;7.312;2023-08-01T19:50:41;4.33;;;3.17;;
948;SDS011;461;51.436;7.312;2023-08-01T19:53:08;10.33;;;2.30;;
948;SDS011;461;51.436;7.312;2023-08-01T20:01:41;3.77;;;2.07;;
948;SDS011;461;51.436;7.312;2023-08-01T20:04:07;4.50;;;2.30;;
948;SDS011;461;51.436;7.312;2023-08-01T20:06:33;8.73;;;2.23;;
948;SDS011;461;51.436;7.312;2023-08-01T20:08:59;4.90;;;2.40;;
948;SDS011;461;51.436;7.312;2023-08-01T20:11:25;7.43;;;2.20;;
948;SDS011;461;51.436;7.312;2023-08-01T20:13:52;3.10;;;2.37;;
948;SDS011;461;51.436;7.312;2023-08-01T20:16:18;8.00;;;2.37;;
948;SDS011;461;51.436;7.312;2023-08-01T20:18:44;5.47;;;2.53;;
948;SDS011;461;51.436;7.312;2023-08-01T20:21:11;3.03;;;2.63;;
948;SDS011;461;51.436;7.312;2023-08-01T20:23:37;2.80;;;2.20;;
948;SDS011;461;51.436;7.312;2023-08-01T20:26:03;3.87;;;2.30;;
948;SDS011;461;51.436;7.312;2023-08-01T20:28:29;5.40;;;2.60;;
948;SDS011;461;51.436;7.312;2023-08-01T20:30:56;3.83;;;1.57;;
948;SDS011;461;51.436;7.312;2023-08-01T20:33:22;4.63;;;2.20;;
948;SDS011;461;51.436;7.312;2023-08-01T20:35:56;6.20;;;2.30;;
948;SDS011;461;51.436;7.312;2023-08-01T20:38:22;7.17;;;2.53;;
948;SDS011;461;51.436;7.312;2023-08-01T20:40:48;5.40;;;2.57;;
948;SDS011;461;51.436;7.312;2023-08-01T20:43:15;4.17;;;2.73;;
948;SDS011;461;51.436;7.312;2023-08-01T20:45:41;3.17;;;2.33;;
948;SDS011;461;51.436;7.312;2023-08-01T20:48:07;5.03;;;2.57;;
948;SDS011;461;51.436;7.312;2023-08-01T20:50:33;5.33;;;2.33;;
948;SDS011;461;51.436;7.312;2023-08-01T20:53:00;6.93;;;2.20;;
948;SDS011;461;51.436;7.312;2023-08-01T20:55:26;2.60;;;2.40;;
948;SDS011;461;51.436;7.312;2023-08-01T20:57:52;6.20;;;2.37;;
948;SDS011;461;51.436;7.312;2023-08-01T21:09:29;4.93;;;1.93;;
948;SDS011;461;51.436;7.312;2023-08-01T21:11:55;4.03;;;2.77;;
948;SDS011;461;51.436;7.312;2023-08-01T21:14:21;8.83;;;2.80;;
948;SDS011;461;51.436;7.312;2023-08-01T21:16:48;8.10;;;3.33;;
948;SDS011;461;51.436;7.312;2023-08-01T21:19:14;12.87;;;2.63;;
948;SDS011;461;51.436;7.312;2023-08-01T21:21:40;4.73;;;2.43;;
948;SDS011;461;51.436;7.312;2023-08-01T21:24:06;7.17;;;2.43;;
948;SDS011;461;51.436;7.312;2023-08-01T21:26:34;8.43;;;2.87;;
948;SDS011;461;51.436;7.312;2023-08-01T21:29:01;4.97;;;2.30;;
948;SDS011;461;51.436;7.312;2023-08-01T21:40:38;4.50;;;2.30;;
948;SDS011;461;51.436;7.312;2023-08-01T21:43:04;2.67;;;2.20;;
948;SDS011;461;51.436;7.312;2023-08-01T21:45:31;5.83;;;3.00;;
948;SDS011;461;51.436;7.312;2023-08-01T21:47:57;3.30;;;2.10;;
948;SDS011;461;51.436;7.312;2023-08-01T21:50:23;8.07;;;3.00;;
948;SDS011;461;51.436;7.312;2023-08-01T21:52:50;10.80;;;3.23;;
948;SDS011;461;51.436;7.312;2023-08-01T21:55:16;2.87;;;2.60;;
948;SDS011;461;51.436;7.312;2023-08-01T21:57:43;8.50;;;2.70;;
948;SDS011;461;51.436;7.312;2023-08-01T22:00:09;4.10;;;2.33;;
948;SDS011;461;51.436;7.312;2023-08-01T22:02:36;10.20;;;3.40;;
948;SDS011;461;51.436;7.312;2023-08-01T22:05:03;4.13;;;2.87;;
948;SDS011;461;51.436;7.312;2023-08-01T22:07:30;9.73;;;2.20;;
948;SDS011;461;51.436;7.312;2023-08-01T22:09:56;2.90;;;2.43;;
948;SDS011;461;51.436;7.312;2023-08-01T22:12:22;4.93;;;2.10;;
948;SDS011;461;51.436;7.312;2023-08-01T22:14:48;5.70;;;2.60;;
948;SDS011;461;51.436;7.312;2023-08-01T22:17:14;5.80;;;2.43;;
948;SDS011;461;51.436;7.312;2023-08-01T22:19:44;5.80;;;3.00;;
948;SDS011;461;51.436;7.312;2023-08-01T22:22:10;4.13;;;2.30;;
948;SDS011;461;51.436;7.312;2023-08-01T22:24:37;5.40;;;2.60;;
948;SDS011;461;51.436;7.312;2023-08-01T22:27:03;3.20;;;2.40;;
948;SDS011;461;51.436;7.312;2023-08-01T22:29:29;5.13;;;2.30;;
948;SDS011;461;51.436;7.312;2023-08-01T22:31:56;7.37;;;2.87;;
948;SDS011;461;51.436;7.312;2023-08-01T22:34:23;5.60;;;2.30;;
948;SDS011;461;51.436;7.312;2023-08-01T22:36:49;6.60;;;2.63;;
948;SDS011;461;51.436;7.312;2023-08-01T22:39:15;5.37;;;2.60;;
948;SDS011;461;51.436;7.312;2023-08-01T22:41:41;9.80;;;2.70;;
948;SDS011;461;51.436;7.312;2023-08-01T22:44:07;5.87;;;2.50;;
948;SDS011;461;51.436;7.312;2023-08-01T22:46:33;6.90;;;2.50;;
948;SDS011;461;51.436;7.312;2023-08-01T22:48:59;6.13;;;2.40;;
948;SDS011;461;51.436;7.312;2023-08-01T22:51:25;5.03;;;2.20;;
948;SDS011;461;51.436;7.312;2023-08-01T22:53:53;9.77;;;2.83;;
948;SDS011;461;51.436;7.312;2023-08-01T22:56:20;6.97;;;2.80;;
948;SDS011;461;51.436;7.312;2023-08-01T22:58:46;4.83;;;2.53;;
948;SDS011;461;51.436;7.312;2023-08-01T23:01:14;3.20;;;2.10;;
948;SDS011;461;51.436;7.312;2023-08-01T23:03:40;4.50;;;2.60;;
948;SDS011;461;51.436;7.312;2023-08-01T23:06:07;5.10;;;2.50;;
948;SDS011;461;51.436;7.312;2023-08-01T23:08:33;5.47;;;2.37;;
948;SDS011;461;51.436;7.312;2023-08-01T23:10:59;14.57;;;3.60;;
948;SDS011;461;51.436;7.312;2023-08-01T23:13:26;10.40;;;2.47;;
948;SDS011;461;51.436;7.312;2023-08-01T23:15:52;5.63;;;2.53;;
948;SDS011;461;51.436;7.312;2023-08-01T23:18:18;6.07;;;1.90;;
948;SDS011;461;51.436;7.312;2023-08-01T23:20:45;10.13;;;3.00;;
948;SDS011;461;51.436;7.312;2023-08-01T23:23:12;6.63;;;2.60;;
948;SDS011;461;51.436;7.312;2023-08-01T23:25:38;6.30;;;3.47;;
948;SDS011;461;51.436;7.312;2023-08-01T23:28:04;5.83;;;2.47;;